KSTC/STC METAR and TAF weather

Enter ICAO airport designator
Station Type Date Time Source
KSTC METAR 2020/01/27 10:53 UTC NOAA

KSTC 271053Z AUTO 35003KT 10SM OVC007 M06/M07 A3001 RMK AO2 SLP186 T10561067


Station Type Date Time Source
KSTC Decoded METAR 2020/01/27 10:53 UTC NOAA

ST. CLOUD REGIONAL AIRPORT, MN, United States (KSTC) 45-33N 094-03W
Jan 27, 2020 - 05:53 AM EST / 2020.01.27 1053 UTC
Wind: from the N (350 degrees) at 3 MPH (3 KT):0
Visibility: 10 mile(s):0
Sky conditions: overcast
Temperature: 21.9 F (-5.6 C)
Dew Point: 19.9 F (-6.7 C)
Relative Humidity: 91%
Pressure (altimeter): 30.01 in. Hg (1016 hPa)
ob: KSTC 271053Z AUTO 35003KT 10SM OVC007 M06/M07 A3001 RMK AO2 SLP186 T10561067
cycle: 11

Station Type Date Time Source
KSTC TAF 2020/01/27 06:42 UTC NOAA

TAF KSTC 270541Z 2706/2806 36004KT P6SM OVC006
FM272000 31005KT P6SM OVC012

Example: see airport list